Commodore Goodwill — C6NU8 — position and weather

sailwx.info

Track history (hours):
 
Tides and Currents Weather Stations Pressure Air Temp Water Temp Dewpoint Dewpoint Depression Visibility Wind Speed Wind Dir Waves Ship Positions

Commodore Goodwill

Operator: Condor Marine Services

Last reported at 2018-Jun-27 05:23 UTC. Time now 2018-Jul-22 03:20 UTC.
Position N 50°09' W 005°03'.
Warning: this ship's position is 24 days out of date.

Length 126 m; draft 4.8 m.

Type: Ship (hazmat cat C). MMSI: 309536000.

Date/timePositionNaut miles runAvg speedWind from/ knotsBaromVisibWave heightAir tempDewpointWater temp
2018-Jun-27 05:23N 50°09' W 005°03'0 0.0
2018-Jun-27 04:55N 50°09' W 005°03'0 0.0
2018-Jun-27 04:30N 50°09' W 005°03'0 0.0
2018-Jun-27 04:00N 50°09' W 005°03'0 0.0
2018-Jun-27 03:20N 50°09' W 005°03'0 0.0
2018-Jun-26 23:37N 50°09' W 005°03'3 0.1
2018-Jun-25 02:33N 50°06' W 005°01'114.3
2018-Jun-25 02:29N 50°06' W 005°00'715.3
2018-Jun-25 02:00N 50°06' W 004°49'813.0
2018-Jun-25 01:24N 50°06' W 004°37'612.9
2018-Jun-25 00:58N 50°06' W 004°28'1413.2
2018-Jun-24 23:53N 50°08' W 004°06'1013.9
2018-Jun-24 23:12N 50°08' W 003°51'715.1
2018-Jun-24 22:45N 50°09' W 003°41'519.5
2018-Jun-24 22:30N 50°10' W 003°33'1019.2
2018-Jun-24 22:01N 50°13' W 003°19'918.8
2018-Jun-24 21:31N 50°15' W 003°05'918.3
2018-Jun-24 21:01N 50°18' W 002°51'918.1
2018-Jun-24 20:31N 50°21' W 002°38'714.8
2018-Jun-24 20:01N 50°23' W 002°27'815.2
2018-Jun-24 19:30N 50°23' W 002°15'4 8.7
2018-Jun-24 19:00N 50°24' W 002°08'5 7.5
2018-Jun-24 18:18N 50°26' W 002°00'2215.6
2018-Jun-24 16:55N 50°31' W 001°27'6 8.0
2018-Jun-24 16:10N 50°33' W 001°18'314.4
2018-Jun-24 15:57N 50°34' W 001°14'714.7
2018-Jun-24 15:28N 50°39' W 001°06'614.1
2018-Jun-24 15:00N 50°45' W 001°05'4 7.1
2018-Jun-24 14:31N 50°49' W 001°06'0 0.0
2018-Jun-24 14:00N 50°49' W 001°06'0 0.0
2018-Jun-24 13:30N 50°49' W 001°06'0 0.0
2018-Jun-24 13:00N 50°49' W 001°06'0 0.0
2018-Jun-24 12:31N 50°49' W 001°06'0 0.0
2018-Jun-24 12:00N 50°49' W 001°06'0 0.0
2018-Jun-24 11:30N 50°49' W 001°06'0 0.0
2018-Jun-24 11:00N 50°49' W 001°06'0 0.0
2018-Jun-24 10:30N 50°49' W 001°06'0 0.0
2018-Jun-24 10:00N 50°49' W 001°06'0 0.0
2018-Jun-24 09:30N 50°49' W 001°06'0 0.0
2018-Jun-24 09:00N 50°49' W 001°06'0 0.0
2018-Jun-24 08:30N 50°49' W 001°06'0 0.0
2018-Jun-24 08:00N 50°49' W 001°06'3 5.3
2018-Jun-24 07:30N 50°46' W 001°05'612.2
2018-Jun-24 07:00N 50°40' W 001°04'815.2
2018-Jun-24 06:30N 50°33' W 001°09'6117.6
2018-Jun-24 03:03N 49°43' W 002°02'521.3
2018-Jun-24 02:49N 49°39' W 002°06'719.4
2018-Jun-24 02:27N 49°32' W 002°10'1118.4
2018-Jun-24 01:52N 49°22' W 002°16'13 4.9
2018-Jun-23 23:13N 49°11' W 002°07'1 4.7
2018-Jun-23 23:00N 49°10' W 002°08'2 4.4
2018-Jun-23 22:28N 49°08' W 002°06'5 9.8
2018-Jun-23 21:58N 49°05' W 002°12'13 2.5
2018-Jun-23 16:53N 49°00' W 001°54'21 7.3
2018-Jun-23 14:00N 48°40' W 002°05'14 3.7
2018-Jun-23 10:07N 48°51' W 002°19'1417.9
2018-Jun-23 09:19N 49°05' W 002°25'617.7
2018-Jun-23 08:57N 49°12' W 002°25'1317.9
2018-Jun-23 08:15N 49°24' W 002°29'415.2
2018-Jun-23 08:01N 49°27' W 002°32'0 0.2
2018-Jun-23 07:30N 49°27' W 002°32'0 0.1
2018-Jun-23 06:59N 49°27' W 002°32'912.9
2018-Jun-23 06:15N 49°19' W 002°25'518.4
2018-Jun-23 06:00N 49°15' W 002°21'916.5
2018-Jun-23 05:28N 49°10' W 002°10'10 2.7
2018-Jun-23 01:45N 49°18' W 002°20'411.4
2018-Jun-23 01:24N 49°21' W 002°17'512.0
2018-Jun-23 00:57N 49°26' W 002°14'612.1
2018-Jun-23 00:27N 49°32' W 002°10'613.0
2018-Jun-23 00:00N 49°37' W 002°07'7014.8
2018-Jun-22 19:16N 50°36' W 001°08'517.7
2018-Jun-22 19:00N 50°40' W 001°04'714.2
2018-Jun-22 18:30N 50°47' W 001°06'2 3.3
2018-Jun-22 18:00N 50°49' W 001°06'0 0.0
2018-Jun-22 17:30N 50°49' W 001°06'0 0.0
2018-Jun-22 17:00N 50°49' W 001°06'0 0.0
2018-Jun-22 16:30N 50°49' W 001°06'0 0.0
2018-Jun-22 16:00N 50°49' W 001°06'0 0.0
2018-Jun-22 15:30N 50°49' W 001°06'2 3.6
2018-Jun-22 15:00N 50°47' W 001°06'713.6
2018-Jun-22 14:30N 50°40' W 001°04'3218.7
2018-Jun-22 12:48N 50°14' W 001°31'2817.5
2018-Jun-22 11:12N 49°51' W 001°56'416.9
2018-Jun-22 10:57N 49°47' W 001°59'1915.5
2018-Jun-22 09:44N 49°31' W 002°15'416.8
2018-Jun-22 09:30N 49°29' W 002°20'713.5
2018-Jun-22 09:00N 49°27' W 002°30'1 2.3
2018-Jun-22 08:30N 49°27' W 002°32'0 0.0
2018-Jun-22 07:59N 49°27' W 002°32'1 2.6
2018-Jun-22 07:30N 49°27' W 002°30'1316.7
2018-Jun-22 06:45N 49°15' W 002°23'6 1.9
2018-Jun-22 03:42N 49°11' W 002°18'9516.0
2018-Jun-21 21:48N 50°35' W 001°10'619.0
2018-Jun-21 21:30N 50°39' W 001°05'815.4
2018-Jun-21 21:00N 50°47' W 001°06'2 3.9
2018-Jun-21 20:30N 50°49' W 001°06'0 0.0
2018-Jun-21 20:01N 50°49' W 001°06'0 0.0
2018-Jun-21 19:30N 50°49' W 001°06'0 0.0
2018-Jun-21 19:00N 50°49' W 001°06'0 0.0
2018-Jun-21 18:31N 50°49' W 001°06'0 0.0
2018-Jun-21 18:01N 50°49' W 001°06'1 1.6
2018-Jun-21 17:31N 50°48' W 001°07'714.0
2018-Jun-21 17:00N 50°42' W 001°03'917.2
2018-Jun-21 16:29N 50°34' W 001°10'6119.3
2018-Jun-21 13:19N 49°43' W 002°02'2319.7
2018-Jun-21 12:09N 49°22' W 002°17'418.8
2018-Jun-21 11:57N 49°19' W 002°19'7 1.8
2018-Jun-21 07:51N 49°11' W 002°22'12 4.4
2018-Jun-21 05:10N 49°22' W 002°31'1 6.9
2018-Jun-21 04:58N 49°23' W 002°30'4 7.7
2018-Jun-21 04:30N 49°27' W 002°30'2 2.2
2018-Jun-21 03:49N 49°27' W 002°32'0 0.0
2018-Jun-21 03:26N 49°27' W 002°32'0 0.1
2018-Jun-21 03:00N 49°27' W 002°32'4 7.9
2018-Jun-21 02:30N 49°26' W 002°26'510.4
2018-Jun-21 01:59N 49°29' W 002°19'8014.8
2018-Jun-20 20:36N 50°35' W 001°09'218.7
2018-Jun-20 20:31N 50°37' W 001°07'816.0
2018-Jun-20 20:01N 50°45' W 001°05'4 8.5
2018-Jun-20 19:30N 50°49' W 001°06'0 0.0
2018-Jun-20 19:00N 50°49' W 001°06'0 0.0
2018-Jun-20 18:30N 50°49' W 001°06'0 0.0
2018-Jun-20 18:00N 50°49' W 001°06'0 0.0
2018-Jun-20 17:30N 50°49' W 001°06'0 0.0
2018-Jun-20 17:00N 50°49' W 001°06'0 0.6
2018-Jun-20 16:30N 50°49' W 001°06'612.7
2018-Jun-20 16:01N 50°43' W 001°03'917.1
2018-Jun-20 15:30N 50°35' W 001°10'7320.0
2018-Jun-20 11:50N 49°33' W 002°10'1219.9
2018-Jun-20 11:15N 49°22' W 002°17'719.4
2018-Jun-20 10:52N 49°15' W 002°21'10 3.6
2018-Jun-20 08:03N 49°11' W 002°07'1 2.8
2018-Jun-20 07:40N 49°10' W 002°08'610.0
2018-Jun-20 07:01N 49°10' W 002°18'314.5
2018-Jun-20 06:48N 49°12' W 002°22'7 6.1
2018-Jun-20 05:37N 49°15' W 002°31'3 4.4
2018-Jun-20 04:56N 49°17' W 002°27'2 4.4
2018-Jun-20 04:28N 49°18' W 002°25'5 6.3
2018-Jun-20 03:45N 49°23' W 002°27'2 7.8
2018-Jun-20 03:30N 49°24' W 002°29'4 7.3
2018-Jun-20 03:00N 49°27' W 002°32'0 0.1
2018-Jun-20 02:29N 49°27' W 002°32'0 0.0
2018-Jun-20 02:00N 49°27' W 002°32'4 7.4
2018-Jun-20 01:30N 49°26' W 002°26'712.4
2018-Jun-20 00:58N 49°30' W 002°18'7914.8
2018-Jun-19 19:39N 50°35' W 001°09'318.9
2018-Jun-19 19:30N 50°37' W 001°07'815.8
2018-Jun-19 19:01N 50°45' W 001°05'4 7.5
2018-Jun-19 18:30N 50°49' W 001°06'0 0.0
2018-Jun-19 18:00N 50°49' W 001°06'0 0.0
2018-Jun-19 17:30N 50°49' W 001°06'0 0.0
2018-Jun-19 17:00N 50°49' W 001°06'0 0.0
2018-Jun-19 16:30N 50°49' W 001°06'0 0.0
2018-Jun-19 16:00N 50°49' W 001°06'0 0.0
2018-Jun-19 15:30N 50°49' W 001°06'3 6.8
2018-Jun-19 15:01N 50°45' W 001°05'815.4
2018-Jun-19 14:31N 50°38' W 001°07'5219.4
2018-Jun-19 11:48N 49°54' W 001°51'1521.7
2018-Jun-19 11:07N 49°41' W 002°04'1420.7
2018-Jun-19 10:25N 49°28' W 002°13'1119.8
2018-Jun-19 09:53N 49°18' W 002°19'818.0
2018-Jun-19 09:28N 49°11' W 002°19'8 3.1
2018-Jun-19 07:01N 49°11' W 002°07'1 3.9
2018-Jun-19 06:45N 49°10' W 002°08'1111.3
2018-Jun-19 05:44N 49°11' W 002°25'7 8.2
2018-Jun-19 04:55N 49°17' W 002°24'4 6.7
2018-Jun-19 04:19N 49°21' W 002°27'2 6.6
2018-Jun-19 03:56N 49°23' W 002°28'3 7.0
2018-Jun-19 03:30N 49°26' W 002°30'2 3.0
2018-Jun-19 02:53N 49°27' W 002°32'0 0.0
2018-Jun-19 02:25N 49°27' W 002°32'0 0.0
2018-Jun-19 02:00N 49°27' W 002°32'4 7.7
2018-Jun-19 01:30N 49°26' W 002°26'714.6
2018-Jun-19 01:00N 49°31' W 002°17'7713.4
2018-Jun-18 19:12N 50°35' W 001°10'417.7
2018-Jun-18 18:58N 50°38' W 001°06'715.8
2018-Jun-18 18:30N 50°46' W 001°05'3 6.3
2018-Jun-18 18:00N 50°49' W 001°06'0 0.0
2018-Jun-18 17:30N 50°49' W 001°06'0 0.0
2018-Jun-18 17:00N 50°49' W 001°06'0 0.0
2018-Jun-18 16:30N 50°49' W 001°06'0 0.0
2018-Jun-18 16:00N 50°49' W 001°06'0 0.0
2018-Jun-18 15:30N 50°49' W 001°06'1 2.5
2018-Jun-18 15:00N 50°48' W 001°07'713.6
2018-Jun-18 14:31N 50°41' W 001°03'7219.7
2018-Jun-18 10:52N 49°41' W 002°03'32 7.5
2018-Jun-18 06:37N 49°10' W 002°14'16 9.8
2018-Jun-18 05:00N 49°23' W 002°28'5 9.5
2018-Jun-18 04:30N 49°27' W 002°31'0 0.9
2018-Jun-18 03:58N 49°27' W 002°32'0 0.0
2018-Jun-18 03:29N 49°27' W 002°32'4 7.4
2018-Jun-18 03:00N 49°26' W 002°27'611.3
2018-Jun-18 02:28N 49°30' W 002°19'81 9.8
2018-Jun-17 18:14N 50°36' W 001°09'418.2
2018-Jun-17 18:00N 50°39' W 001°05'715.0
2018-Jun-17 17:30N 50°47' W 001°06'2 3.6
2018-Jun-17 17:01N 50°49' W 001°06'0 0.0
2018-Jun-17 16:30N 50°49' W 001°06'0 0.0
2018-Jun-17 16:00N 50°49' W 001°06'0 0.0
2018-Jun-17 15:30N 50°49' W 001°06'0 0.0
2018-Jun-17 15:01N 50°49' W 001°06'0 0.0
2018-Jun-17 14:30N 50°49' W 001°06'0 0.0
2018-Jun-17 14:00N 50°49' W 001°06'0 0.0
2018-Jun-17 13:30N 50°49' W 001°06'0 0.0
2018-Jun-17 13:00N 50°49' W 001°06'0 0.0
2018-Jun-17 12:30N 50°49' W 001°06'0 0.0
2018-Jun-17 11:59N 50°49' W 001°06'0 0.0
2018-Jun-17 11:30N 50°49' W 001°06'0 0.0
2018-Jun-17 11:00N 50°49' W 001°06'0 0.0
2018-Jun-17 10:30N 50°49' W 001°06'0 0.0
2018-Jun-17 10:00N 50°49' W 001°06'0 0.0
2018-Jun-17 09:31N 50°49' W 001°06'0 0.0
2018-Jun-17 09:00N 50°49' W 001°06'0 0.0
2018-Jun-17 08:30N 50°49' W 001°06'0 0.0
2018-Jun-17 08:01N 50°49' W 001°06'1 3.0
2018-Jun-17 07:31N 50°47' W 001°07'510.1
2018-Jun-17 07:00N 50°43' W 001°02'  
Track history (hours):
 
Tides and Currents Weather Stations Pressure Air Temp Water Temp Dewpoint Dewpoint Depression Visibility Wind Speed Wind Dir Waves Ship Positions

Commodore Goodwill

Operator: Condor Marine Services

Last reported at 2018-Jun-27 05:23 UTC. Time now 2018-Jul-22 03:20 UTC.
Position N 50°09' W 005°03'.
Warning: this ship's position is 24 days out of date.

Length 126 m; draft 4.8 m.

Type: Ship (hazmat cat C). MMSI: 309536000.

Date/timePositionNaut miles runAvg speedWind from/ knotsBaromVisibWave heightAir tempDewpointWater temp
2018-Jun-27 05:23N 50°09' W 005°03'0 0.0
2018-Jun-27 04:55N 50°09' W 005°03'0 0.0
2018-Jun-27 04:30N 50°09' W 005°03'0 0.0
2018-Jun-27 04:00N 50°09' W 005°03'0 0.0
2018-Jun-27 03:20N 50°09' W 005°03'0 0.0
2018-Jun-26 23:37N 50°09' W 005°03'3 0.1
2018-Jun-25 02:33N 50°06' W 005°01'114.3
2018-Jun-25 02:29N 50°06' W 005°00'715.3
2018-Jun-25 02:00N 50°06' W 004°49'813.0
2018-Jun-25 01:24N 50°06' W 004°37'612.9
2018-Jun-25 00:58N 50°06' W 004°28'1413.2
2018-Jun-24 23:53N 50°08' W 004°06'1013.9
2018-Jun-24 23:12N 50°08' W 003°51'715.1
2018-Jun-24 22:45N 50°09' W 003°41'519.5
2018-Jun-24 22:30N 50°10' W 003°33'1019.2
2018-Jun-24 22:01N 50°13' W 003°19'918.8
2018-Jun-24 21:31N 50°15' W 003°05'918.3
2018-Jun-24 21:01N 50°18' W 002°51'918.1
2018-Jun-24 20:31N 50°21' W 002°38'714.8
2018-Jun-24 20:01N 50°23' W 002°27'815.2
2018-Jun-24 19:30N 50°23' W 002°15'4 8.7
2018-Jun-24 19:00N 50°24' W 002°08'5 7.5
2018-Jun-24 18:18N 50°26' W 002°00'2215.6
2018-Jun-24 16:55N 50°31' W 001°27'6 8.0
2018-Jun-24 16:10N 50°33' W 001°18'314.4
2018-Jun-24 15:57N 50°34' W 001°14'714.7
2018-Jun-24 15:28N 50°39' W 001°06'614.1
2018-Jun-24 15:00N 50°45' W 001°05'4 7.1
2018-Jun-24 14:31N 50°49' W 001°06'0 0.0
2018-Jun-24 14:00N 50°49' W 001°06'0 0.0
2018-Jun-24 13:30N 50°49' W 001°06'0 0.0
2018-Jun-24 13:00N 50°49' W 001°06'0 0.0
2018-Jun-24 12:31N 50°49' W 001°06'0 0.0
2018-Jun-24 12:00N 50°49' W 001°06'0 0.0
2018-Jun-24 11:30N 50°49' W 001°06'0 0.0
2018-Jun-24 11:00N 50°49' W 001°06'0 0.0
2018-Jun-24 10:30N 50°49' W 001°06'0 0.0
2018-Jun-24 10:00N 50°49' W 001°06'0 0.0
2018-Jun-24 09:30N 50°49' W 001°06'0 0.0
2018-Jun-24 09:00N 50°49' W 001°06'0 0.0
2018-Jun-24 08:30N 50°49' W 001°06'0 0.0
2018-Jun-24 08:00N 50°49' W 001°06'3 5.3
2018-Jun-24 07:30N 50°46' W 001°05'612.2
2018-Jun-24 07:00N 50°40' W 001°04'815.2
2018-Jun-24 06:30N 50°33' W 001°09'6117.6
2018-Jun-24 03:03N 49°43' W 002°02'521.3
2018-Jun-24 02:49N 49°39' W 002°06'719.4
2018-Jun-24 02:27N 49°32' W 002°10'1118.4
2018-Jun-24 01:52N 49°22' W 002°16'13 4.9
2018-Jun-23 23:13N 49°11' W 002°07'1 4.7
2018-Jun-23 23:00N 49°10' W 002°08'2 4.4
2018-Jun-23 22:28N 49°08' W 002°06'5 9.8
2018-Jun-23 21:58N 49°05' W 002°12'13 2.5
2018-Jun-23 16:53N 49°00' W 001°54'21 7.3
2018-Jun-23 14:00N 48°40' W 002°05'14 3.7
2018-Jun-23 10:07N 48°51' W 002°19'1417.9
2018-Jun-23 09:19N 49°05' W 002°25'617.7
2018-Jun-23 08:57N 49°12' W 002°25'1317.9
2018-Jun-23 08:15N 49°24' W 002°29'415.2
2018-Jun-23 08:01N 49°27' W 002°32'0 0.2
2018-Jun-23 07:30N 49°27' W 002°32'0 0.1
2018-Jun-23 06:59N 49°27' W 002°32'912.9
2018-Jun-23 06:15N 49°19' W 002°25'518.4
2018-Jun-23 06:00N 49°15' W 002°21'916.5
2018-Jun-23 05:28N 49°10' W 002°10'10 2.7
2018-Jun-23 01:45N 49°18' W 002°20'411.4
2018-Jun-23 01:24N 49°21' W 002°17'512.0
2018-Jun-23 00:57N 49°26' W 002°14'612.1
2018-Jun-23 00:27N 49°32' W 002°10'613.0
2018-Jun-23 00:00N 49°37' W 002°07'7014.8
2018-Jun-22 19:16N 50°36' W 001°08'517.7
2018-Jun-22 19:00N 50°40' W 001°04'714.2
2018-Jun-22 18:30N 50°47' W 001°06'2 3.3
2018-Jun-22 18:00N 50°49' W 001°06'0 0.0
2018-Jun-22 17:30N 50°49' W 001°06'0 0.0
2018-Jun-22 17:00N 50°49' W 001°06'0 0.0
2018-Jun-22 16:30N 50°49' W 001°06'0 0.0
2018-Jun-22 16:00N 50°49' W 001°06'0 0.0
2018-Jun-22 15:30N 50°49' W 001°06'2 3.6
2018-Jun-22 15:00N 50°47' W 001°06'713.6
2018-Jun-22 14:30N 50°40' W 001°04'3218.7
2018-Jun-22 12:48N 50°14' W 001°31'2817.5
2018-Jun-22 11:12N 49°51' W 001°56'416.9
2018-Jun-22 10:57N 49°47' W 001°59'1915.5
2018-Jun-22 09:44N 49°31' W 002°15'416.8
2018-Jun-22 09:30N 49°29' W 002°20'713.5
2018-Jun-22 09:00N 49°27' W 002°30'1 2.3
2018-Jun-22 08:30N 49°27' W 002°32'0 0.0
2018-Jun-22 07:59N 49°27' W 002°32'1 2.6
2018-Jun-22 07:30N 49°27' W 002°30'1316.7
2018-Jun-22 06:45N 49°15' W 002°23'6 1.9
2018-Jun-22 03:42N 49°11' W 002°18'9516.0
2018-Jun-21 21:48N 50°35' W 001°10'619.0
2018-Jun-21 21:30N 50°39' W 001°05'815.4
2018-Jun-21 21:00N 50°47' W 001°06'2 3.9
2018-Jun-21 20:30N 50°49' W 001°06'0 0.0
2018-Jun-21 20:01N 50°49' W 001°06'0 0.0
2018-Jun-21 19:30N 50°49' W 001°06'0 0.0
2018-Jun-21 19:00N 50°49' W 001°06'0 0.0
2018-Jun-21 18:31N 50°49' W 001°06'0 0.0
2018-Jun-21 18:01N 50°49' W 001°06'1 1.6
2018-Jun-21 17:31N 50°48' W 001°07'714.0
2018-Jun-21 17:00N 50°42' W 001°03'917.2
2018-Jun-21 16:29N 50°34' W 001°10'6119.3
2018-Jun-21 13:19N 49°43' W 002°02'2319.7
2018-Jun-21 12:09N 49°22' W 002°17'418.8
2018-Jun-21 11:57N 49°19' W 002°19'7 1.8
2018-Jun-21 07:51N 49°11' W 002°22'12 4.4
2018-Jun-21 05:10N 49°22' W 002°31'1 6.9
2018-Jun-21 04:58N 49°23' W 002°30'4 7.7
2018-Jun-21 04:30N 49°27' W 002°30'2 2.2
2018-Jun-21 03:49N 49°27' W 002°32'0 0.0
2018-Jun-21 03:26N 49°27' W 002°32'0 0.1
2018-Jun-21 03:00N 49°27' W 002°32'4 7.9
2018-Jun-21 02:30N 49°26' W 002°26'510.4
2018-Jun-21 01:59N 49°29' W 002°19'8014.8
2018-Jun-20 20:36N 50°35' W 001°09'218.7
2018-Jun-20 20:31N 50°37' W 001°07'816.0
2018-Jun-20 20:01N 50°45' W 001°05'4 8.5
2018-Jun-20 19:30N 50°49' W 001°06'0 0.0
2018-Jun-20 19:00N 50°49' W 001°06'0 0.0
2018-Jun-20 18:30N 50°49' W 001°06'0 0.0
2018-Jun-20 18:00N 50°49' W 001°06'0 0.0
2018-Jun-20 17:30N 50°49' W 001°06'0 0.0
2018-Jun-20 17:00N 50°49' W 001°06'0 0.6
2018-Jun-20 16:30N 50°49' W 001°06'612.7
2018-Jun-20 16:01N 50°43' W 001°03'917.1
2018-Jun-20 15:30N 50°35' W 001°10'7320.0
2018-Jun-20 11:50N 49°33' W 002°10'1219.9
2018-Jun-20 11:15N 49°22' W 002°17'719.4
2018-Jun-20 10:52N 49°15' W 002°21'10 3.6
2018-Jun-20 08:03N 49°11' W 002°07'1 2.8
2018-Jun-20 07:40N 49°10' W 002°08'610.0
2018-Jun-20 07:01N 49°10' W 002°18'314.5
2018-Jun-20 06:48N 49°12' W 002°22'7 6.1
2018-Jun-20 05:37N 49°15' W 002°31'3 4.4
2018-Jun-20 04:56N 49°17' W 002°27'2 4.4
2018-Jun-20 04:28N 49°18' W 002°25'5 6.3
2018-Jun-20 03:45N 49°23' W 002°27'2 7.8
2018-Jun-20 03:30N 49°24' W 002°29'4 7.3
2018-Jun-20 03:00N 49°27' W 002°32'0 0.1
2018-Jun-20 02:29N 49°27' W 002°32'0 0.0
2018-Jun-20 02:00N 49°27' W 002°32'4 7.4
2018-Jun-20 01:30N 49°26' W 002°26'712.4
2018-Jun-20 00:58N 49°30' W 002°18'7914.8
2018-Jun-19 19:39N 50°35' W 001°09'318.9
2018-Jun-19 19:30N 50°37' W 001°07'815.8
2018-Jun-19 19:01N 50°45' W 001°05'4 7.5
2018-Jun-19 18:30N 50°49' W 001°06'0 0.0
2018-Jun-19 18:00N 50°49' W 001°06'0 0.0
2018-Jun-19 17:30N 50°49' W 001°06'0 0.0
2018-Jun-19 17:00N 50°49' W 001°06'0 0.0
2018-Jun-19 16:30N 50°49' W 001°06'0 0.0
2018-Jun-19 16:00N 50°49' W 001°06'0 0.0
2018-Jun-19 15:30N 50°49' W 001°06'3 6.8
2018-Jun-19 15:01N 50°45' W 001°05'815.4
2018-Jun-19 14:31N 50°38' W 001°07'5219.4
2018-Jun-19 11:48N 49°54' W 001°51'1521.7
2018-Jun-19 11:07N 49°41' W 002°04'1420.7
2018-Jun-19 10:25N 49°28' W 002°13'1119.8
2018-Jun-19 09:53N 49°18' W 002°19'818.0
2018-Jun-19 09:28N 49°11' W 002°19'8 3.1
2018-Jun-19 07:01N 49°11' W 002°07'1 3.9
2018-Jun-19 06:45N 49°10' W 002°08'1111.3
2018-Jun-19 05:44N 49°11' W 002°25'7 8.2
2018-Jun-19 04:55N 49°17' W 002°24'4 6.7
2018-Jun-19 04:19N 49°21' W 002°27'2 6.6
2018-Jun-19 03:56N 49°23' W 002°28'3 7.0
2018-Jun-19 03:30N 49°26' W 002°30'2 3.0
2018-Jun-19 02:53N 49°27' W 002°32'0 0.0
2018-Jun-19 02:25N 49°27' W 002°32'0 0.0
2018-Jun-19 02:00N 49°27' W 002°32'4 7.7
2018-Jun-19 01:30N 49°26' W 002°26'714.6
2018-Jun-19 01:00N 49°31' W 002°17'7713.4
2018-Jun-18 19:12N 50°35' W 001°10'417.7
2018-Jun-18 18:58N 50°38' W 001°06'715.8
2018-Jun-18 18:30N 50°46' W 001°05'3 6.3
2018-Jun-18 18:00N 50°49' W 001°06'0 0.0
2018-Jun-18 17:30N 50°49' W 001°06'0 0.0
2018-Jun-18 17:00N 50°49' W 001°06'0 0.0
2018-Jun-18 16:30N 50°49' W 001°06'0 0.0
2018-Jun-18 16:00N 50°49' W 001°06'0 0.0
2018-Jun-18 15:30N 50°49' W 001°06'1 2.5
2018-Jun-18 15:00N 50°48' W 001°07'713.6
2018-Jun-18 14:31N 50°41' W 001°03'7219.7
2018-Jun-18 10:52N 49°41' W 002°03'32 7.5
2018-Jun-18 06:37N 49°10' W 002°14'16 9.8
2018-Jun-18 05:00N 49°23' W 002°28'5 9.5
2018-Jun-18 04:30N 49°27' W 002°31'0 0.9
2018-Jun-18 03:58N 49°27' W 002°32'0 0.0
2018-Jun-18 03:29N 49°27' W 002°32'4 7.4
2018-Jun-18 03:00N 49°26' W 002°27'611.3
2018-Jun-18 02:28N 49°30' W 002°19'81 9.8
2018-Jun-17 18:14N 50°36' W 001°09'418.2
2018-Jun-17 18:00N 50°39' W 001°05'715.0
2018-Jun-17 17:30N 50°47' W 001°06'2 3.6
2018-Jun-17 17:01N 50°49' W 001°06'0 0.0
2018-Jun-17 16:30N 50°49' W 001°06'0 0.0
2018-Jun-17 16:00N 50°49' W 001°06'0 0.0
2018-Jun-17 15:30N 50°49' W 001°06'0 0.0
2018-Jun-17 15:01N 50°49' W 001°06'0 0.0
2018-Jun-17 14:30N 50°49' W 001°06'0 0.0
2018-Jun-17 14:00N 50°49' W 001°06'0 0.0
2018-Jun-17 13:30N 50°49' W 001°06'0 0.0
2018-Jun-17 13:00N 50°49' W 001°06'0 0.0
2018-Jun-17 12:30N 50°49' W 001°06'0 0.0
2018-Jun-17 11:59N 50°49' W 001°06'0 0.0
2018-Jun-17 11:30N 50°49' W 001°06'0 0.0
2018-Jun-17 11:00N 50°49' W 001°06'0 0.0
2018-Jun-17 10:30N 50°49' W 001°06'0 0.0
2018-Jun-17 10:00N 50°49' W 001°06'0 0.0
2018-Jun-17 09:31N 50°49' W 001°06'0 0.0
2018-Jun-17 09:00N 50°49' W 001°06'0 0.0
2018-Jun-17 08:30N 50°49' W 001°06'0 0.0
2018-Jun-17 08:01N 50°49' W 001°06'1 3.0
2018-Jun-17 07:31N 50°47' W 001°07'510.1
2018-Jun-17 07:00N 50°43' W 001°02'  

Dump ship's entire track history